sensor_id;sensor_type;location;lat;lon;timestamp;temperature;humidity
23729;DHT22;12045;60.214;24.724;2023-12-04T00:02:29;-10.90;99.90
23729;DHT22;12045;60.214;24.724;2023-12-04T00:05:07;-10.30;99.90
23729;DHT22;12045;60.214;24.724;2023-12-04T00:07:42;-9.90;99.90
23729;DHT22;12045;60.214;24.724;2023-12-04T00:10:15;-10.70;99.90
23729;DHT22;12045;60.214;24.724;2023-12-04T00:12:52;-10.80;99.90
23729;DHT22;12045;60.214;24.724;2023-12-04T00:15:30;-10.80;99.90
23729;DHT22;12045;60.214;24.724;2023-12-04T00:18:12;-10.70;99.90
23729;DHT22;12045;60.214;24.724;2023-12-04T00:20:44;-10.70;99.90
23729;DHT22;12045;60.214;24.724;2023-12-04T00:23:21;-10.40;99.90
23729;DHT22;12045;60.214;24.724;2023-12-04T00:26:01;-10.70;99.90
23729;DHT22;12045;60.214;24.724;2023-12-04T00:28:39;-10.10;99.90
23729;DHT22;12045;60.214;24.724;2023-12-04T00:31:11;-11.00;99.90
23729;DHT22;12045;60.214;24.724;2023-12-04T00:33:45;-10.90;99.90
23729;DHT22;12045;60.214;24.724;2023-12-04T00:36:37;-11.00;99.90
23729;DHT22;12045;60.214;24.724;2023-12-04T00:39:22;-11.20;99.90
23729;DHT22;12045;60.214;24.724;2023-12-04T00:41:57;-11.20;99.90
23729;DHT22;12045;60.214;24.724;2023-12-04T00:44:31;-10.40;99.90
23729;DHT22;12045;60.214;24.724;2023-12-04T00:47:06;-11.20;99.90
23729;DHT22;12045;60.214;24.724;2023-12-04T00:49:38;-11.10;99.90
23729;DHT22;12045;60.214;24.724;2023-12-04T00:52:22;-11.00;99.90
23729;DHT22;12045;60.214;24.724;2023-12-04T00:54:56;-11.30;99.90
23729;DHT22;12045;60.214;24.724;2023-12-04T00:57:38;-11.20;99.90
23729;DHT22;12045;60.214;24.724;2023-12-04T01:00:19;-10.40;99.90
23729;DHT22;12045;60.214;24.724;2023-12-04T01:02:57;-11.20;99.90
23729;DHT22;12045;60.214;24.724;2023-12-04T01:05:39;-11.30;99.90
23729;DHT22;12045;60.214;24.724;2023-12-04T01:08:11;-11.10;99.90
23729;DHT22;12045;60.214;24.724;2023-12-04T01:11:10;-10.30;99.90
23729;DHT22;12045;60.214;24.724;2023-12-04T01:14:02;-11.10;99.90
23729;DHT22;12045;60.214;24.724;2023-12-04T01:16:34;-11.30;99.90
23729;DHT22;12045;60.214;24.724;2023-12-04T01:19:16;-11.30;99.90
23729;DHT22;12045;60.214;24.724;2023-12-04T01:21:53;-11.40;99.90
23729;DHT22;12045;60.214;24.724;2023-12-04T01:24:37;-9.80;99.90
23729;DHT22;12045;60.214;24.724;2023-12-04T01:27:11;-11.20;99.90
23729;DHT22;12045;60.214;24.724;2023-12-04T01:29:52;-11.10;99.90
23729;DHT22;12045;60.214;24.724;2023-12-04T01:32:24;-11.20;99.90
23729;DHT22;12045;60.214;24.724;2023-12-04T01:35:00;-10.60;99.90
23729;DHT22;12045;60.214;24.724;2023-12-04T01:37:37;-11.10;99.90
23729;DHT22;12045;60.214;24.724;2023-12-04T01:40:22;-11.50;99.90
23729;DHT22;12045;60.214;24.724;2023-12-04T01:43:15;-11.40;99.90
23729;DHT22;12045;60.214;24.724;2023-12-04T01:45:54;-11.30;99.90
23729;DHT22;12045;60.214;24.724;2023-12-04T01:48:46;-11.20;99.90
23729;DHT22;12045;60.214;24.724;2023-12-04T01:51:22;-11.60;99.90
23729;DHT22;12045;60.214;24.724;2023-12-04T01:53:57;-11.50;99.90
23729;DHT22;12045;60.214;24.724;2023-12-04T01:56:31;-11.70;99.90
23729;DHT22;12045;60.214;24.724;2023-12-04T01:59:05;-11.30;99.90
23729;DHT22;12045;60.214;24.724;2023-12-04T02:01:40;-11.50;99.90
23729;DHT22;12045;60.214;24.724;2023-12-04T02:04:15;-11.50;99.90
23729;DHT22;12045;60.214;24.724;2023-12-04T02:07:03;-10.80;99.90
23729;DHT22;12045;60.214;24.724;2023-12-04T02:09:39;-11.60;99.90
23729;DHT22;12045;60.214;24.724;2023-12-04T02:12:13;-11.50;99.90
23729;DHT22;12045;60.214;24.724;2023-12-04T02:14:47;-10.60;99.90
23729;DHT22;12045;60.214;24.724;2023-12-04T02:17:23;-11.70;99.90
23729;DHT22;12045;60.214;24.724;2023-12-04T02:19:56;-11.60;99.90
23729;DHT22;12045;60.214;24.724;2023-12-04T02:22:29;-11.30;99.90
23729;DHT22;12045;60.214;24.724;2023-12-04T02:25:04;-11.50;99.90
23729;DHT22;12045;60.214;24.724;2023-12-04T02:28:11;-11.40;99.90
23729;DHT22;12045;60.214;24.724;2023-12-04T02:30:48;-11.60;99.90
23729;DHT22;12045;60.214;24.724;2023-12-04T02:33:24;-11.60;99.90
23729;DHT22;12045;60.214;24.724;2023-12-04T02:36:05;-11.80;99.90
23729;DHT22;12045;60.214;24.724;2023-12-04T02:38:57;-11.70;99.90
23729;DHT22;12045;60.214;24.724;2023-12-04T02:41:33;-11.50;99.90
23729;DHT22;12045;60.214;24.724;2023-12-04T02:44:15;-11.70;99.90
23729;DHT22;12045;60.214;24.724;2023-12-04T02:46:58;-11.70;99.90
23729;DHT22;12045;60.214;24.724;2023-12-04T02:49:29;-11.60;99.90
23729;DHT22;12045;60.214;24.724;2023-12-04T02:52:12;-11.80;99.90
23729;DHT22;12045;60.214;24.724;2023-12-04T02:54:56;-11.60;99.90
23729;DHT22;12045;60.214;24.724;2023-12-04T02:57:34;-11.40;99.90
23729;DHT22;12045;60.214;24.724;2023-12-04T03:00:11;-11.80;99.90
23729;DHT22;12045;60.214;24.724;2023-12-04T03:02:49;-11.60;99.90
23729;DHT22;12045;60.214;24.724;2023-12-04T03:05:19;-11.60;99.90
23729;DHT22;12045;60.214;24.724;2023-12-04T03:07:56;-11.90;99.90
23729;DHT22;12045;60.214;24.724;2023-12-04T03:10:30;-11.80;99.90
23729;DHT22;12045;60.214;24.724;2023-12-04T03:13:03;-11.80;99.90
23729;DHT22;12045;60.214;24.724;2023-12-04T03:15:36;-11.70;99.90
23729;DHT22;12045;60.214;24.724;2023-12-04T03:18:26;-11.80;99.90
23729;DHT22;12045;60.214;24.724;2023-12-04T03:21:15;-11.80;99.90
23729;DHT22;12045;60.214;24.724;2023-12-04T03:23:55;-11.80;99.90
23729;DHT22;12045;60.214;24.724;2023-12-04T03:26:55;-11.90;99.90
23729;DHT22;12045;60.214;24.724;2023-12-04T03:29:28;-11.70;99.90
23729;DHT22;12045;60.214;24.724;2023-12-04T03:32:03;-10.90;99.90
23729;DHT22;12045;60.214;24.724;2023-12-04T03:34:37;-11.00;99.90
23729;DHT22;12045;60.214;24.724;2023-12-04T03:37:13;-11.70;99.90
23729;DHT22;12045;60.214;24.724;2023-12-04T03:39:48;-11.80;99.90
23729;DHT22;12045;60.214;24.724;2023-12-04T03:42:32;-10.90;99.90
23729;DHT22;12045;60.214;24.724;2023-12-04T03:45:10;-11.60;99.90
23729;DHT22;12045;60.214;24.724;2023-12-04T03:47:46;-11.50;99.90
23729;DHT22;12045;60.214;24.724;2023-12-04T03:50:18;-11.70;99.90
23729;DHT22;12045;60.214;24.724;2023-12-04T03:53:02;-10.80;99.90
23729;DHT22;12045;60.214;24.724;2023-12-04T03:55:34;-11.80;99.90
23729;DHT22;12045;60.214;24.724;2023-12-04T03:58:09;-11.60;99.90
23729;DHT22;12045;60.214;24.724;2023-12-04T04:00:41;-11.40;99.90
23729;DHT22;12045;60.214;24.724;2023-12-04T04:03:12;-11.40;99.90
23729;DHT22;12045;60.214;24.724;2023-12-04T04:05:48;-11.10;99.90
23729;DHT22;12045;60.214;24.724;2023-12-04T04:08:23;-12.00;99.90
23729;DHT22;12045;60.214;24.724;2023-12-04T04:10:58;-12.10;99.90
23729;DHT22;12045;60.214;24.724;2023-12-04T04:13:33;-11.50;99.90
23729;DHT22;12045;60.214;24.724;2023-12-04T04:16:15;-12.10;99.90
23729;DHT22;12045;60.214;24.724;2023-12-04T04:18:55;-12.20;99.90
23729;DHT22;12045;60.214;24.724;2023-12-04T04:21:31;-11.90;99.90
23729;DHT22;12045;60.214;24.724;2023-12-04T04:24:03;-12.00;99.90
23729;DHT22;12045;60.214;24.724;2023-12-04T04:26:43;-12.10;99.90
23729;DHT22;12045;60.214;24.724;2023-12-04T04:29:19;-11.90;99.90
23729;DHT22;12045;60.214;24.724;2023-12-04T04:31:55;-12.00;99.90
23729;DHT22;12045;60.214;24.724;2023-12-04T04:34:32;-11.90;99.90
23729;DHT22;12045;60.214;24.724;2023-12-04T04:37:15;-11.90;99.90
23729;DHT22;12045;60.214;24.724;2023-12-04T04:39:48;-11.80;99.90
23729;DHT22;12045;60.214;24.724;2023-12-04T04:42:22;-11.80;99.90
23729;DHT22;12045;60.214;24.724;2023-12-04T04:45:00;-12.00;99.90
23729;DHT22;12045;60.214;24.724;2023-12-04T04:47:43;-12.50;99.90
23729;DHT22;12045;60.214;24.724;2023-12-04T04:50:22;-11.70;99.90
23729;DHT22;12045;60.214;24.724;2023-12-04T04:53:01;-12.00;99.90
23729;DHT22;12045;60.214;24.724;2023-12-04T04:55:34;-12.00;99.90
23729;DHT22;12045;60.214;24.724;2023-12-04T04:58:17;-11.80;99.90
23729;DHT22;12045;60.214;24.724;2023-12-04T05:00:55;-11.90;99.90
23729;DHT22;12045;60.214;24.724;2023-12-04T05:03:26;-11.90;99.90
23729;DHT22;12045;60.214;24.724;2023-12-04T05:06:04;-11.70;99.90
23729;DHT22;12045;60.214;24.724;2023-12-04T05:08:38;-11.60;99.90
23729;DHT22;12045;60.214;24.724;2023-12-04T05:11:28;-11.70;99.90
23729;DHT22;12045;60.214;24.724;2023-12-04T05:14:05;-11.70;99.90
23729;DHT22;12045;60.214;24.724;2023-12-04T05:16:38;-11.90;99.90
23729;DHT22;12045;60.214;24.724;2023-12-04T05:19:11;-10.00;99.90
23729;DHT22;12045;60.214;24.724;2023-12-04T05:21:55;-11.60;99.90
23729;DHT22;12045;60.214;24.724;2023-12-04T05:24:30;-11.70;99.90
23729;DHT22;12045;60.214;24.724;2023-12-04T05:27:16;-11.70;99.90
23729;DHT22;12045;60.214;24.724;2023-12-04T05:30:03;-11.50;99.90
23729;DHT22;12045;60.214;24.724;2023-12-04T05:32:38;-11.40;99.90
23729;DHT22;12045;60.214;24.724;2023-12-04T05:35:10;-11.50;99.90
23729;DHT22;12045;60.214;24.724;2023-12-04T05:37:44;-11.40;99.90
23729;DHT22;12045;60.214;24.724;2023-12-04T05:40:32;-10.90;99.90
23729;DHT22;12045;60.214;24.724;2023-12-04T05:43:08;-11.30;99.90
23729;DHT22;12045;60.214;24.724;2023-12-04T05:45:46;-11.30;99.90
23729;DHT22;12045;60.214;24.724;2023-12-04T05:48:38;-11.40;99.90
23729;DHT22;12045;60.214;24.724;2023-12-04T05:51:23;-11.10;99.90
23729;DHT22;12045;60.214;24.724;2023-12-04T05:54:01;-10.60;99.90
23729;DHT22;12045;60.214;24.724;2023-12-04T05:56:37;-11.30;99.90
23729;DHT22;12045;60.214;24.724;2023-12-04T05:59:17;-10.40;99.90
23729;DHT22;12045;60.214;24.724;2023-12-04T06:02:01;-10.50;99.90
23729;DHT22;12045;60.214;24.724;2023-12-04T06:04:42;-11.10;99.90
23729;DHT22;12045;60.214;24.724;2023-12-04T06:07:21;-11.00;99.90
23729;DHT22;12045;60.214;24.724;2023-12-04T06:10:00;-10.70;99.90
23729;DHT22;12045;60.214;24.724;2023-12-04T06:12:31;-9.70;99.90
23729;DHT22;12045;60.214;24.724;2023-12-04T06:14:58;-10.90;99.90
23729;DHT22;12045;60.214;24.724;2023-12-04T06:17:27;-10.50;99.90
23729;DHT22;12045;60.214;24.724;2023-12-04T06:19:59;-10.50;99.90
23729;DHT22;12045;60.214;24.724;2023-12-04T06:22:32;-10.60;99.90
23729;DHT22;12045;60.214;24.724;2023-12-04T06:25:01;-8.60;99.90
23729;DHT22;12045;60.214;24.724;2023-12-04T06:27:55;-10.40;99.90
23729;DHT22;12045;60.214;24.724;2023-12-04T06:30:24;-10.40;99.90
23729;DHT22;12045;60.214;24.724;2023-12-04T06:32:56;-10.40;99.90
23729;DHT22;12045;60.214;24.724;2023-12-04T06:35:25;-10.30;99.90
23729;DHT22;12045;60.214;24.724;2023-12-04T06:37:55;-10.30;99.90
23729;DHT22;12045;60.214;24.724;2023-12-04T06:40:27;-10.20;99.90
23729;DHT22;12045;60.214;24.724;2023-12-04T06:43:02;-10.20;99.90
23729;DHT22;12045;60.214;24.724;2023-12-04T06:45:30;-10.40;99.90
23729;DHT22;12045;60.214;24.724;2023-12-04T06:48:00;-10.40;99.90
23729;DHT22;12045;60.214;24.724;2023-12-04T06:50:31;-10.20;99.90
23729;DHT22;12045;60.214;24.724;2023-12-04T06:53:00;-10.40;99.90
23729;DHT22;12045;60.214;24.724;2023-12-04T06:55:30;-10.30;99.90
23729;DHT22;12045;60.214;24.724;2023-12-04T06:58:00;-10.20;99.90
23729;DHT22;12045;60.214;24.724;2023-12-04T07:00:31;-10.30;99.90
23729;DHT22;12045;60.214;24.724;2023-12-04T07:03:02;-9.90;99.90
23729;DHT22;12045;60.214;24.724;2023-12-04T07:05:33;-10.30;99.90
23729;DHT22;12045;60.214;24.724;2023-12-04T07:08:04;-10.00;99.90
23729;DHT22;12045;60.214;24.724;2023-12-04T07:10:32;-10.40;99.90
23729;DHT22;12045;60.214;24.724;2023-12-04T07:13:01;-10.50;99.90
23729;DHT22;12045;60.214;24.724;2023-12-04T07:15:31;-10.60;99.90
23729;DHT22;12045;60.214;24.724;2023-12-04T07:18:00;-10.20;99.90
23729;DHT22;12045;60.214;24.724;2023-12-04T07:20:31;-10.20;99.90
23729;DHT22;12045;60.214;24.724;2023-12-04T07:23:04;-10.10;99.90
23729;DHT22;12045;60.214;24.724;2023-12-04T07:25:31;-10.10;99.90
23729;DHT22;12045;60.214;24.724;2023-12-04T07:28:02;-10.10;99.90
23729;DHT22;12045;60.214;24.724;2023-12-04T07:30:30;-8.40;99.90
23729;DHT22;12045;60.214;24.724;2023-12-04T07:32:58;-10.00;99.90
23729;DHT22;12045;60.214;24.724;2023-12-04T07:35:26;-9.00;99.90
23729;DHT22;12045;60.214;24.724;2023-12-04T07:37:55;-10.00;99.90
23729;DHT22;12045;60.214;24.724;2023-12-04T07:40:23;-10.00;99.90
23729;DHT22;12045;60.214;24.724;2023-12-04T07:42:52;-10.10;99.90
23729;DHT22;12045;60.214;24.724;2023-12-04T07:45:21;-10.10;99.90
23729;DHT22;12045;60.214;24.724;2023-12-04T07:47:51;-9.40;99.90
23729;DHT22;12045;60.214;24.724;2023-12-04T07:50:19;-10.10;99.90
23729;DHT22;12045;60.214;24.724;2023-12-04T07:52:53;-10.00;99.90
23729;DHT22;12045;60.214;24.724;2023-12-04T07:55:22;-10.00;99.90
23729;DHT22;12045;60.214;24.724;2023-12-04T07:57:51;-9.80;99.90
23729;DHT22;12045;60.214;24.724;2023-12-04T08:00:21;-10.00;99.90
23729;DHT22;12045;60.214;24.724;2023-12-04T08:02:51;-9.90;99.90
23729;DHT22;12045;60.214;24.724;2023-12-04T08:05:22;-10.00;99.90
23729;DHT22;12045;60.214;24.724;2023-12-04T08:07:49;-9.90;99.90
23729;DHT22;12045;60.214;24.724;2023-12-04T08:10:18;-9.80;99.90
23729;DHT22;12045;60.214;24.724;2023-12-04T08:12:46;-9.90;99.90
23729;DHT22;12045;60.214;24.724;2023-12-04T08:15:14;-9.80;99.90
23729;DHT22;12045;60.214;24.724;2023-12-04T08:17:42;-9.90;99.90
23729;DHT22;12045;60.214;24.724;2023-12-04T08:20:11;-9.90;99.90
23729;DHT22;12045;60.214;24.724;2023-12-04T08:22:48;-9.70;99.90
23729;DHT22;12045;60.214;24.724;2023-12-04T08:25:17;-10.10;99.90
23729;DHT22;12045;60.214;24.724;2023-12-04T08:27:46;-9.80;99.90
23729;DHT22;12045;60.214;24.724;2023-12-04T08:30:15;-9.80;99.90
23729;DHT22;12045;60.214;24.724;2023-12-04T08:32:46;-9.90;99.90
23729;DHT22;12045;60.214;24.724;2023-12-04T08:35:15;-9.60;99.90
23729;DHT22;12045;60.214;24.724;2023-12-04T08:37:44;-10.70;99.90
23729;DHT22;12045;60.214;24.724;2023-12-04T08:40:13;-9.90;99.90
23729;DHT22;12045;60.214;24.724;2023-12-04T08:42:43;-9.50;99.90
23729;DHT22;12045;60.214;24.724;2023-12-04T08:45:10;-9.80;99.90
23729;DHT22;12045;60.214;24.724;2023-12-04T08:47:39;-9.60;99.90
23729;DHT22;12045;60.214;24.724;2023-12-04T08:50:07;-9.80;99.90
23729;DHT22;12045;60.214;24.724;2023-12-04T08:52:35;-9.50;99.90
23729;DHT22;12045;60.214;24.724;2023-12-04T08:55:03;-9.60;99.90
23729;DHT22;12045;60.214;24.724;2023-12-04T08:57:31;-9.50;99.90
23729;DHT22;12045;60.214;24.724;2023-12-04T09:00:00;-9.60;99.90
23729;DHT22;12045;60.214;24.724;2023-12-04T09:02:29;-9.70;99.90
23729;DHT22;12045;60.214;24.724;2023-12-04T09:04:58;-9.50;99.90
23729;DHT22;12045;60.214;24.724;2023-12-04T09:07:29;-9.60;99.90
23729;DHT22;12045;60.214;24.724;2023-12-04T09:10:00;-9.60;99.90
23729;DHT22;12045;60.214;24.724;2023-12-04T09:12:37;-9.60;99.90
23729;DHT22;12045;60.214;24.724;2023-12-04T09:15:06;-9.50;99.90
23729;DHT22;12045;60.214;24.724;2023-12-04T09:17:33;-9.30;99.90
23729;DHT22;12045;60.214;24.724;2023-12-04T09:20:06;-9.50;99.90
23729;DHT22;12045;60.214;24.724;2023-12-04T09:22:34;-8.70;99.90
23729;DHT22;12045;60.214;24.724;2023-12-04T09:25:19;-9.40;99.90
23729;DHT22;12045;60.214;24.724;2023-12-04T09:27:46;-9.30;99.90
23729;DHT22;12045;60.214;24.724;2023-12-04T09:30:14;-9.40;99.90
23729;DHT22;12045;60.214;24.724;2023-12-04T09:32:42;-9.30;99.90
23729;DHT22;12045;60.214;24.724;2023-12-04T09:35:14;-9.20;99.90
23729;DHT22;12045;60.214;24.724;2023-12-04T09:37:43;-9.60;99.90
23729;DHT22;12045;60.214;24.724;2023-12-04T09:40:12;-9.20;99.90
23729;DHT22;12045;60.214;24.724;2023-12-04T09:42:39;-9.00;99.90
23729;DHT22;12045;60.214;24.724;2023-12-04T09:45:08;-9.20;99.90
23729;DHT22;12045;60.214;24.724;2023-12-04T09:47:42;-9.10;99.90
23729;DHT22;12045;60.214;24.724;2023-12-04T09:50:10;-9.20;99.90
23729;DHT22;12045;60.214;24.724;2023-12-04T09:52:40;-9.10;99.90
23729;DHT22;12045;60.214;24.724;2023-12-04T09:55:09;-8.70;99.90
23729;DHT22;12045;60.214;24.724;2023-12-04T09:57:41;-8.30;99.90
23729;DHT22;12045;60.214;24.724;2023-12-04T10:00:13;-9.10;99.90
23729;DHT22;12045;60.214;24.724;2023-12-04T10:02:41;-9.00;99.90
23729;DHT22;12045;60.214;24.724;2023-12-04T10:05:12;-9.10;99.90
23729;DHT22;12045;60.214;24.724;2023-12-04T10:07:42;-9.00;99.90
23729;DHT22;12045;60.214;24.724;2023-12-04T10:10:11;-9.00;99.90
23729;DHT22;12045;60.214;24.724;2023-12-04T10:12:38;-9.10;99.90
23729;DHT22;12045;60.214;24.724;2023-12-04T10:15:11;-8.90;99.90
23729;DHT22;12045;60.214;24.724;2023-12-04T10:17:41;-8.60;99.90
23729;DHT22;12045;60.214;24.724;2023-12-04T10:20:13;-8.90;99.90
23729;DHT22;12045;60.214;24.724;2023-12-04T10:25:27;-8.90;99.90
23729;DHT22;12045;60.214;24.724;2023-12-04T10:28:18;-8.80;99.90
23729;DHT22;12045;60.214;24.724;2023-12-04T10:30:52;-8.10;99.90
23729;DHT22;12045;60.214;24.724;2023-12-04T10:33:24;-8.70;99.90
23729;DHT22;12045;60.214;24.724;2023-12-04T10:35:55;-8.70;99.90
23729;DHT22;12045;60.214;24.724;2023-12-04T10:38:24;-7.50;99.90
23729;DHT22;12045;60.214;24.724;2023-12-04T10:40:53;-8.60;99.90
23729;DHT22;12045;60.214;24.724;2023-12-04T10:43:22;-8.60;99.90
23729;DHT22;12045;60.214;24.724;2023-12-04T10:45:51;-8.30;99.90
23729;DHT22;12045;60.214;24.724;2023-12-04T10:48:20;-8.50;99.90
23729;DHT22;12045;60.214;24.724;2023-12-04T10:50:49;-7.80;99.90
23729;DHT22;12045;60.214;24.724;2023-12-04T10:53:17;-8.50;99.90
23729;DHT22;12045;60.214;24.724;2023-12-04T10:55:53;-8.50;99.90
23729;DHT22;12045;60.214;24.724;2023-12-04T10:58:25;-8.50;99.90
23729;DHT22;12045;60.214;24.724;2023-12-04T11:00:56;-8.40;99.90
23729;DHT22;12045;60.214;24.724;2023-12-04T11:03:36;-8.40;99.90
23729;DHT22;12045;60.214;24.724;2023-12-04T11:06:06;-8.40;99.90
23729;DHT22;12045;60.214;24.724;2023-12-04T11:08:42;-8.40;99.90
23729;DHT22;12045;60.214;24.724;2023-12-04T11:11:23;-8.40;99.90
23729;DHT22;12045;60.214;24.724;2023-12-04T11:13:56;-8.30;99.90
23729;DHT22;12045;60.214;24.724;2023-12-04T11:21:49;-8.20;99.90
23729;DHT22;12045;60.214;24.724;2023-12-04T11:24:21;-8.20;99.90
23729;DHT22;12045;60.214;24.724;2023-12-04T11:26:49;-6.70;99.90
23729;DHT22;12045;60.214;24.724;2023-12-04T11:29:17;-8.20;99.90
23729;DHT22;12045;60.214;24.724;2023-12-04T11:31:47;-8.10;99.90
23729;DHT22;12045;60.214;24.724;2023-12-04T11:34:16;-8.50;99.90
23729;DHT22;12045;60.214;24.724;2023-12-04T11:36:44;-8.10;99.90
23729;DHT22;12045;60.214;24.724;2023-12-04T11:39:13;-8.00;99.90
23729;DHT22;12045;60.214;24.724;2023-12-04T11:41:45;-6.40;99.90
23729;DHT22;12045;60.214;24.724;2023-12-04T11:44:14;-8.00;99.90
23729;DHT22;12045;60.214;24.724;2023-12-04T11:46:56;-7.90;99.90
23729;DHT22;12045;60.214;24.724;2023-12-04T11:49:33;-6.70;99.90
23729;DHT22;12045;60.214;24.724;2023-12-04T11:55:03;-7.90;99.90
23729;DHT22;12045;60.214;24.724;2023-12-04T11:57:39;-7.90;99.90
23729;DHT22;12045;60.214;24.724;2023-12-04T12:00:26;-7.90;99.90
23729;DHT22;12045;60.214;24.724;2023-12-04T12:05:46;-7.80;99.90
23729;DHT22;12045;60.214;24.724;2023-12-04T12:08:20;-7.80;99.90
23729;DHT22;12045;60.214;24.724;2023-12-04T12:10:51;-7.80;99.90
23729;DHT22;12045;60.214;24.724;2023-12-04T12:13:22;-7.80;99.90
23729;DHT22;12045;60.214;24.724;2023-12-04T12:15:52;-7.80;99.90
23729;DHT22;12045;60.214;24.724;2023-12-04T12:18:36;-7.80;99.90
23729;DHT22;12045;60.214;24.724;2023-12-04T12:21:09;-6.90;99.90
23729;DHT22;12045;60.214;24.724;2023-12-04T12:23:44;-7.80;99.90
23729;DHT22;12045;60.214;24.724;2023-12-04T12:26:16;-7.60;99.90
23729;DHT22;12045;60.214;24.724;2023-12-04T12:31:20;-7.60;99.90
23729;DHT22;12045;60.214;24.724;2023-12-04T12:33:48;-7.60;99.90
23729;DHT22;12045;60.214;24.724;2023-12-04T12:41:35;-7.70;99.90
23729;DHT22;12045;60.214;24.724;2023-12-04T12:44:03;-7.60;99.90
23729;DHT22;12045;60.214;24.724;2023-12-04T12:46:32;-7.50;99.90
23729;DHT22;12045;60.214;24.724;2023-12-04T12:49:01;-7.50;99.90
23729;DHT22;12045;60.214;24.724;2023-12-04T12:51:30;-7.60;99.90
23729;DHT22;12045;60.214;24.724;2023-12-04T12:53:59;-7.60;99.90
23729;DHT22;12045;60.214;24.724;2023-12-04T12:56:27;-7.60;99.90
23729;DHT22;12045;60.214;24.724;2023-12-04T12:58:54;-7.60;99.90
23729;DHT22;12045;60.214;24.724;2023-12-04T13:01:30;-7.60;99.90
23729;DHT22;12045;60.214;24.724;2023-12-04T13:04:05;-7.60;99.90
23729;DHT22;12045;60.214;24.724;2023-12-04T13:06:33;-7.60;99.90
23729;DHT22;12045;60.214;24.724;2023-12-04T13:09:02;-7.50;99.90
23729;DHT22;12045;60.214;24.724;2023-12-04T13:11:35;-7.60;99.90
23729;DHT22;12045;60.214;24.724;2023-12-04T13:14:04;-7.60;99.90
23729;DHT22;12045;60.214;24.724;2023-12-04T13:16:33;-7.60;99.90
23729;DHT22;12045;60.214;24.724;2023-12-04T13:19:00;-7.50;99.90
23729;DHT22;12045;60.214;24.724;2023-12-04T13:21:29;-7.50;99.90
23729;DHT22;12045;60.214;24.724;2023-12-04T13:23:58;-7.40;99.90
23729;DHT22;12045;60.214;24.724;2023-12-04T13:26:26;-7.40;99.90
23729;DHT22;12045;60.214;24.724;2023-12-04T13:28:56;-7.40;99.90
23729;DHT22;12045;60.214;24.724;2023-12-04T13:31:23;-7.40;99.90
23729;DHT22;12045;60.214;24.724;2023-12-04T13:33:53;-7.40;99.90
23729;DHT22;12045;60.214;24.724;2023-12-04T13:36:23;-7.40;99.90
23729;DHT22;12045;60.214;24.724;2023-12-04T13:38:51;-7.30;99.90
23729;DHT22;12045;60.214;24.724;2023-12-04T13:41:21;-7.30;99.90
23729;DHT22;12045;60.214;24.724;2023-12-04T13:44:07;-7.30;99.90
23729;DHT22;12045;60.214;24.724;2023-12-04T13:46:35;-7.40;99.90
23729;DHT22;12045;60.214;24.724;2023-12-04T13:49:05;-7.40;99.90
23729;DHT22;12045;60.214;24.724;2023-12-04T13:51:37;-7.40;99.90
23729;DHT22;12045;60.214;24.724;2023-12-04T13:54:09;-7.30;99.90
23729;DHT22;12045;60.214;24.724;2023-12-04T13:56:48;-7.30;99.90
23729;DHT22;12045;60.214;24.724;2023-12-04T13:59:25;-7.20;99.90
23729;DHT22;12045;60.214;24.724;2023-12-04T14:01:54;-7.20;99.90
23729;DHT22;12045;60.214;24.724;2023-12-04T14:04:28;-7.20;99.90
23729;DHT22;12045;60.214;24.724;2023-12-04T14:06:58;-7.20;99.90
23729;DHT22;12045;60.214;24.724;2023-12-04T14:09:30;-7.20;99.90
23729;DHT22;12045;60.214;24.724;2023-12-04T14:11:59;-5.50;99.90
23729;DHT22;12045;60.214;24.724;2023-12-04T14:14:29;-7.20;99.90
23729;DHT22;12045;60.214;24.724;2023-12-04T14:16:56;-7.30;99.90
23729;DHT22;12045;60.214;24.724;2023-12-04T14:19:23;-7.30;99.90
23729;DHT22;12045;60.214;24.724;2023-12-04T14:21:52;-7.30;99.90
23729;DHT22;12045;60.214;24.724;2023-12-04T14:24:20;-7.30;99.90
23729;DHT22;12045;60.214;24.724;2023-12-04T14:26:50;-7.30;99.90
23729;DHT22;12045;60.214;24.724;2023-12-04T14:29:18;-7.30;99.90
23729;DHT22;12045;60.214;24.724;2023-12-04T14:31:46;-7.40;99.90
23729;DHT22;12045;60.214;24.724;2023-12-04T14:34:16;-7.30;99.90
23729;DHT22;12045;60.214;24.724;2023-12-04T14:36:44;-7.30;99.90
23729;DHT22;12045;60.214;24.724;2023-12-04T14:39:13;-7.20;99.90
23729;DHT22;12045;60.214;24.724;2023-12-04T14:41:40;-6.60;99.90
23729;DHT22;12045;60.214;24.724;2023-12-04T14:44:10;-7.20;99.90
23729;DHT22;12045;60.214;24.724;2023-12-04T14:46:39;-7.30;99.90
23729;DHT22;12045;60.214;24.724;2023-12-04T14:49:08;-7.30;99.90
23729;DHT22;12045;60.214;24.724;2023-12-04T14:51:38;-7.30;99.90
23729;DHT22;12045;60.214;24.724;2023-12-04T14:54:07;-7.20;99.90
23729;DHT22;12045;60.214;24.724;2023-12-04T14:56:43;-7.20;99.90
23729;DHT22;12045;60.214;24.724;2023-12-04T14:59:27;-7.20;99.90
23729;DHT22;12045;60.214;24.724;2023-12-04T15:02:03;-7.20;99.90
23729;DHT22;12045;60.214;24.724;2023-12-04T15:05:05;-7.20;99.90
23729;DHT22;12045;60.214;24.724;2023-12-04T15:07:45;-7.30;99.90
23729;DHT22;12045;60.214;24.724;2023-12-04T15:10:37;-7.20;99.90
23729;DHT22;12045;60.214;24.724;2023-12-04T15:13:29;-7.10;99.90
23729;DHT22;12045;60.214;24.724;2023-12-04T15:16:16;-7.10;99.90
23729;DHT22;12045;60.214;24.724;2023-12-04T15:18:53;-7.00;99.90
23729;DHT22;12045;60.214;24.724;2023-12-04T15:21:24;-7.10;99.90
23729;DHT22;12045;60.214;24.724;2023-12-04T15:23:54;-7.10;99.90
23729;DHT22;12045;60.214;24.724;2023-12-04T15:26:23;-7.00;99.90
23729;DHT22;12045;60.214;24.724;2023-12-04T15:28:53;-7.00;99.90
23729;DHT22;12045;60.214;24.724;2023-12-04T15:31:22;-7.00;99.90
23729;DHT22;12045;60.214;24.724;2023-12-04T15:33:51;-7.00;99.90
23729;DHT22;12045;60.214;24.724;2023-12-04T15:36:20;-7.00;99.90
23729;DHT22;12045;60.214;24.724;2023-12-04T15:38:49;-7.00;99.90
23729;DHT22;12045;60.214;24.724;2023-12-04T15:41:18;-7.00;99.90
23729;DHT22;12045;60.214;24.724;2023-12-04T15:43:47;-7.00;99.90
23729;DHT22;12045;60.214;24.724;2023-12-04T15:46:16;-6.70;99.90
23729;DHT22;12045;60.214;24.724;2023-12-04T15:48:51;-7.10;99.90
23729;DHT22;12045;60.214;24.724;2023-12-04T15:51:19;-7.10;99.90
23729;DHT22;12045;60.214;24.724;2023-12-04T15:53:50;-7.10;99.90
23729;DHT22;12045;60.214;24.724;2023-12-04T15:56:21;-7.10;99.90
23729;DHT22;12045;60.214;24.724;2023-12-04T15:58:48;-7.10;99.90
23729;DHT22;12045;60.214;24.724;2023-12-04T16:01:18;-7.10;99.90
23729;DHT22;12045;60.214;24.724;2023-12-04T16:03:45;-7.00;99.90
23729;DHT22;12045;60.214;24.724;2023-12-04T16:06:14;-7.00;99.90
23729;DHT22;12045;60.214;24.724;2023-12-04T16:08:43;-7.00;99.90
23729;DHT22;12045;60.214;24.724;2023-12-04T16:11:12;-7.00;99.90
23729;DHT22;12045;60.214;24.724;2023-12-04T16:13:41;-6.90;99.90